Time;durP1;ratioP1;P1;durP2;ratioP2;P2;SDS_P1;SDS_P2;PMS_P1;PMS_P2;Temp;Humidity;BMP_temperature;BMP_pressure;BME280_temperature;BME280_humidity;BME280_pressure;Samples;Min_cycle;Max_cycle;Signal;HPM_P1;HPM_P2
2021/01/17 00:00:24;;;;;;;3.30;2.03;;;15.60;99.90;;;;;;5077480;28;20027;-62
2021/01/17 00:02:52;;;;;;;4.35;2.03;;;15.50;99.90;;;;;;5076512;28;20033;-64
2021/01/17 00:05:22;;;;;;;4.43;2.25;;;15.50;99.90;;;;;;5077129;28;20100;-64
2021/01/17 00:07:49;;;;;;;3.60;2.40;;;15.40;99.90;;;;;;5077354;28;20021;-62
2021/01/17 00:10:17;;;;;;;3.15;2.13;;;15.40;99.90;;;;;;5077336;28;20029;-70
2021/01/17 00:12:46;;;;;;;3.92;2.60;;;15.40;99.90;;;;;;5077226;28;20024;-68
2021/01/17 00:15:12;;;;;;;2.63;2.30;;;15.40;99.90;;;;;;5077409;28;20028;-67
2021/01/17 00:17:38;;;;;;;3.15;2.20;;;15.30;99.90;;;;;;5077217;28;20074;-68
2021/01/17 00:20:15;;;;;;;6.78;2.55;;;15.30;99.90;;;;;;5077369;28;20024;-66
2021/01/17 00:22:41;;;;;;;3.63;2.78;;;15.30;99.90;;;;;;5077188;28;20381;-64
2021/01/17 00:25:10;;;;;;;3.03;2.30;;;15.20;99.90;;;;;;5073443;28;20082;-61
2021/01/17 00:27:35;;;;;;;3.17;2.38;;;15.20;99.90;;;;;;5073746;28;20025;-62
2021/01/17 00:30:06;;;;;;;4.35;2.40;;;15.20;99.90;;;;;;5074276;28;20119;-66
2021/01/17 00:32:32;;;;;;;3.95;2.63;;;15.20;99.90;;;;;;5073464;28;20029;-64
2021/01/17 00:34:58;;;;;;;3.97;2.53;;;15.10;99.90;;;;;;5074344;28;20482;-67
2021/01/17 00:37:23;;;;;;;3.42;2.50;;;15.10;99.90;;;;;;5076358;28;20032;-65
2021/01/17 00:39:49;;;;;;;3.25;2.58;;;15.10;99.90;;;;;;5093953;28;20016;-69
2021/01/17 00:42:16;;;;;;;3.00;2.35;;;15.10;99.90;;;;;;5087373;28;20105;-68
2021/01/17 00:44:43;;;;;;;3.40;2.72;;;15.00;99.90;;;;;;5073767;28;20040;-70
2021/01/17 00:47:13;;;;;;;3.67;2.60;;;15.00;99.90;;;;;;5073682;28;20381;-67
2021/01/17 00:49:39;;;;;;;4.63;2.88;;;15.00;99.90;;;;;;5073458;28;20035;-69
2021/01/17 00:52:05;;;;;;;3.97;2.78;;;15.00;99.90;;;;;;5073714;28;20036;-69
2021/01/17 00:54:31;;;;;;;4.68;2.50;;;15.00;99.90;;;;;;5073966;28;20423;-64
2021/01/17 00:57:04;;;;;;;3.03;2.50;;;14.90;99.90;;;;;;5073767;28;20063;-70
2021/01/17 00:59:29;;;;;;;3.30;2.67;;;14.90;99.90;;;;;;5073888;28;20104;-66
2021/01/17 01:01:55;;;;;;;3.20;2.40;;;14.90;99.90;;;;;;5072876;28;20095;-64
2021/01/17 01:04:21;;;;;;;3.10;2.63;;;14.90;99.90;;;;;;5073362;28;20032;-63
2021/01/17 01:06:50;;;;;;;3.20;2.65;;;14.90;99.90;;;;;;5073021;28;20032;-63
2021/01/17 01:09:16;;;;;;;4.22;2.53;;;14.90;99.90;;;;;;5073367;28;20048;-65
2021/01/17 01:11:42;;;;;;;3.45;2.65;;;14.90;99.90;;;;;;5072903;28;20602;-63
2021/01/17 01:14:08;;;;;;;4.15;2.72;;;14.80;99.90;;;;;;5072848;28;20028;-62
2021/01/17 01:16:34;;;;;;;4.80;2.85;;;14.80;99.90;;;;;;5073042;28;20078;-62
2021/01/17 01:19:01;;;;;;;2.88;2.50;;;14.80;99.90;;;;;;5073413;28;20020;-68
2021/01/17 01:21:28;;;;;;;3.28;2.88;;;14.80;99.90;;;;;;5073345;28;20020;-61
2021/01/17 01:23:54;;;;;;;3.72;2.88;;;14.70;99.90;;;;;;5072940;28;20409;-62
2021/01/17 01:26:23;;;;;;;3.33;2.90;;;14.70;99.90;;;;;;5073214;28;20056;-67
2021/01/17 01:28:50;;;;;;;3.33;2.90;;;14.70;99.90;;;;;;5072730;28;20031;-63
2021/01/17 01:31:23;;;;;;;4.05;2.92;;;14.70;99.90;;;;;;5072922;28;20024;-61
2021/01/17 01:33:49;;;;;;;3.90;2.80;;;14.70;99.90;;;;;;5072698;28;20039;-62
2021/01/17 01:36:23;;;;;;;3.75;2.83;;;14.70;99.90;;;;;;5071605;28;20035;-62
2021/01/17 01:38:50;;;;;;;3.13;2.58;;;14.70;99.90;;;;;;5086873;28;20028;-62
2021/01/17 01:41:16;;;;;;;3.63;2.80;;;14.70;99.90;;;;;;5093231;28;20373;-61
2021/01/17 01:43:42;;;;;;;3.60;3.03;;;14.70;99.90;;;;;;5077636;28;20025;-63
2021/01/17 01:46:13;;;;;;;4.10;3.03;;;14.70;99.90;;;;;;5072806;28;20031;-61
2021/01/17 01:48:39;;;;;;;4.10;2.70;;;14.60;99.90;;;;;;5072406;28;20021;-62
2021/01/17 01:51:05;;;;;;;5.65;2.35;;;14.60;99.90;;;;;;5072453;28;20036;-66
2021/01/17 01:53:30;;;;;;;5.85;3.05;;;14.70;99.90;;;;;;5072702;28;20056;-61
2021/01/17 01:55:59;;;;;;;3.50;2.65;;;14.60;99.90;;;;;;5072093;28;20036;-62
2021/01/17 01:58:27;;;;;;;3.38;2.63;;;14.60;99.90;;;;;;5072447;28;20426;-67
2021/01/17 02:00:53;;;;;;;4.35;2.55;;;14.60;99.90;;;;;;5072226;28;20104;-62
2021/01/17 02:03:19;;;;;;;4.00;2.70;;;14.60;99.90;;;;;;5072048;28;20111;-66
2021/01/17 02:05:44;;;;;;;3.85;2.40;;;14.60;99.90;;;;;;5071394;28;20044;-63
2021/01/17 02:08:47;;;;;;;3.83;2.70;;;14.60;99.90;;;;;;5070928;28;20027;-62
2021/01/17 02:11:38;;;;;;;3.88;2.63;;;14.50;99.90;;;;;;5072308;28;20043;-65
2021/01/17 02:14:15;;;;;;;3.83;2.65;;;14.50;99.90;;;;;;5072049;28;20024;-62
2021/01/17 02:16:43;;;;;;;3.92;2.50;;;14.50;99.90;;;;;;5071872;28;20480;-62
2021/01/17 02:19:09;;;;;;;3.97;2.88;;;14.50;99.90;;;;;;5072321;28;20024;-63
2021/01/17 02:21:38;;;;;;;3.70;2.40;;;14.50;99.90;;;;;;5071631;28;20028;-63
2021/01/17 02:24:09;;;;;;;3.72;2.63;;;14.50;99.90;;;;;;5071773;28;20050;-64
2021/01/17 02:26:36;;;;;;;4.05;2.60;;;14.50;99.90;;;;;;5071619;28;20016;-61
2021/01/17 02:29:02;;;;;;;3.13;2.75;;;14.50;99.90;;;;;;5071987;28;20032;-62
2021/01/17 02:31:30;;;;;;;3.60;2.65;;;14.40;99.90;;;;;;5071683;28;20032;-63
2021/01/17 02:33:57;;;;;;;4.78;2.75;;;14.40;99.90;;;;;;5071229;28;20020;-61
2021/01/17 02:37:01;;;;;;;4.07;2.58;;;14.40;99.90;;;;;;5070478;28;20028;-62
2021/01/17 02:39:55;;;;;;;3.53;2.63;;;14.40;99.90;;;;;;5091543;28;20024;-62
2021/01/17 02:42:21;;;;;;;3.97;2.55;;;14.40;99.90;;;;;;5091977;28;20051;-62
2021/01/17 02:44:47;;;;;;;4.28;2.53;;;14.40;99.90;;;;;;5091562;28;20073;-61
2021/01/17 02:47:13;;;;;;;2.88;2.20;;;14.40;99.90;;;;;;5091319;28;20523;-61
2021/01/17 02:49:38;;;;;;;4.05;2.55;;;14.40;99.90;;;;;;5091439;28;20027;-62
2021/01/17 02:52:06;;;;;;;3.97;2.45;;;14.40;99.90;;;;;;5091878;28;20093;-65
2021/01/17 02:54:39;;;;;;;3.88;2.30;;;14.40;99.90;;;;;;5091441;28;20020;-61
2021/01/17 02:57:09;;;;;;;3.40;2.53;;;14.40;99.90;;;;;;5091621;28;20028;-63
2021/01/17 02:59:43;;;;;;;4.57;2.42;;;14.40;99.90;;;;;;5091435;28;20476;-61
2021/01/17 03:02:09;;;;;;;4.22;2.30;;;14.40;99.90;;;;;;5081364;28;20028;-62
2021/01/17 03:04:47;;;;;;;3.70;2.40;;;14.40;99.90;;;;;;5071043;28;20043;-66
2021/01/17 03:07:14;;;;;;;4.53;2.58;;;14.40;99.90;;;;;;5071330;28;20060;-64
2021/01/17 03:09:45;;;;;;;4.50;2.40;;;14.40;99.90;;;;;;5052943;28;20035;-65
2021/01/17 03:12:11;;;;;;;3.55;2.17;;;14.30;99.90;;;;;;5071214;28;20029;-62
2021/01/17 03:14:38;;;;;;;3.40;2.33;;;14.40;99.90;;;;;;5070985;28;20088;-61
2021/01/17 03:17:06;;;;;;;4.95;2.47;;;14.30;99.90;;;;;;5071328;28;20033;-62
2021/01/17 03:19:31;;;;;;;3.15;2.35;;;14.30;99.90;;;;;;5071547;28;20025;-62
2021/01/17 03:21:57;;;;;;;4.45;2.45;;;14.30;99.90;;;;;;5071510;28;20058;-62
2021/01/17 03:24:23;;;;;;;5.05;2.30;;;14.30;99.90;;;;;;5071189;28;20016;-66
2021/01/17 03:26:49;;;;;;;3.03;1.98;;;14.30;99.90;;;;;;5070852;28;20032;-64
2021/01/17 03:29:14;;;;;;;4.28;2.42;;;14.30;99.90;;;;;;5071054;28;20460;-62
2021/01/17 03:31:40;;;;;;;4.47;2.20;;;14.30;99.90;;;;;;5070364;28;20492;-61
2021/01/17 03:34:05;;;;;;;3.22;2.28;;;14.30;99.90;;;;;;5071085;28;20103;-61
2021/01/17 03:36:31;;;;;;;4.25;2.53;;;14.30;99.90;;;;;;5071302;28;20032;-65
2021/01/17 03:38:57;;;;;;;4.95;2.55;;;14.30;99.90;;;;;;5086772;28;20028;-66
2021/01/17 03:41:24;;;;;;;3.75;2.53;;;14.30;99.90;;;;;;5091065;28;20380;-62
2021/01/17 03:43:50;;;;;;;4.00;2.30;;;14.30;99.90;;;;;;5091010;28;20024;-61
2021/01/17 03:46:15;;;;;;;3.85;2.22;;;14.30;99.90;;;;;;5091221;28;20043;-62
2021/01/17 03:48:41;;;;;;;3.80;2.10;;;14.30;99.90;;;;;;5090734;28;20464;-61
2021/01/17 03:51:07;;;;;;;3.70;2.30;;;14.30;99.90;;;;;;5070331;28;20450;-64
2021/01/17 03:53:32;;;;;;;3.47;2.25;;;14.30;99.90;;;;;;5070604;28;20039;-62
2021/01/17 03:55:58;;;;;;;3.35;2.08;;;14.30;99.90;;;;;;5070875;28;20041;-61
2021/01/17 03:58:23;;;;;;;3.83;2.30;;;14.30;99.90;;;;;;5070959;28;20024;-62
2021/01/17 04:00:49;;;;;;;4.25;2.05;;;14.30;99.90;;;;;;5074042;28;20078;-62
2021/01/17 04:03:15;;;;;;;3.42;2.08;;;14.30;99.90;;;;;;5074595;28;20028;-63
2021/01/17 04:05:40;;;;;;;3.88;2.10;;;14.30;99.90;;;;;;5074163;28;20041;-61
2021/01/17 04:08:06;;;;;;;3.42;2.13;;;14.30;99.90;;;;;;5074481;28;20020;-61
2021/01/17 04:10:32;;;;;;;4.78;2.20;;;14.30;99.90;;;;;;5074397;28;20044;-61
2021/01/17 04:12:57;;;;;;;4.70;2.25;;;14.30;99.90;;;;;;5074699;28;20040;-61
2021/01/17 04:15:23;;;;;;;4.68;2.45;;;14.30;99.90;;;;;;5074327;28;20103;-63
2021/01/17 04:17:49;;;;;;;4.90;2.25;;;14.30;99.90;;;;;;5074033;28;20074;-62
2021/01/17 04:20:15;;;;;;;6.07;2.53;;;14.30;99.90;;;;;;5074210;28;20021;-66
2021/01/17 04:22:40;;;;;;;4.93;2.20;;;14.30;99.90;;;;;;5073908;28;20501;-64
2021/01/17 04:25:07;;;;;;;5.43;2.20;;;14.30;99.90;;;;;;5074063;28;20028;-62
2021/01/17 04:27:32;;;;;;;6.28;2.10;;;14.30;99.90;;;;;;5073948;28;20025;-62
2021/01/17 04:29:58;;;;;;;3.75;2.15;;;14.30;99.90;;;;;;5074305;28;20032;-61
2021/01/17 04:32:24;;;;;;;5.88;2.10;;;14.30;99.90;;;;;;5073620;28;20115;-61
2021/01/17 04:34:51;;;;;;;4.18;2.10;;;14.30;99.90;;;;;;5072472;28;20384;-63
2021/01/17 04:37:24;;;;;;;3.83;1.80;;;14.30;99.90;;;;;;5075433;28;20032;-62
2021/01/17 04:39:50;;;;;;;4.57;1.95;;;14.30;99.90;;;;;;5082892;28;20025;-61
2021/01/17 04:42:18;;;;;;;3.15;1.90;;;14.30;99.90;;;;;;5073819;28;20020;-62
2021/01/17 04:44:50;;;;;;;3.38;1.95;;;14.30;99.90;;;;;;5073618;28;20035;-64
2021/01/17 04:47:21;;;;;;;4.60;1.98;;;14.30;99.90;;;;;;5073732;28;20024;-63
2021/01/17 04:49:52;;;;;;;3.92;1.90;;;14.30;99.90;;;;;;5073438;28;20028;-62
2021/01/17 04:52:21;;;;;;;5.13;1.98;;;14.20;99.90;;;;;;5073620;28;20032;-62
2021/01/17 04:54:52;;;;;;;2.88;1.88;;;14.20;99.90;;;;;;5073437;28;20094;-62
2021/01/17 04:57:56;;;;;;;4.95;2.13;;;14.20;99.90;;;;;;5073651;28;20021;-63
2021/01/17 05:00:27;;;;;;;5.53;2.20;;;14.20;99.90;;;;;;5073231;28;20099;-63
2021/01/17 05:03:18;;;;;;;4.70;2.10;;;14.20;99.90;;;;;;5072992;28;20485;-61
2021/01/17 05:06:06;;;;;;;5.20;2.05;;;14.20;99.90;;;;;;5073022;28;20046;-61
2021/01/17 05:08:34;;;;;;;4.38;1.90;;;14.20;99.90;;;;;;5073554;28;20040;-63
2021/01/17 05:10:59;;;;;;;3.80;1.77;;;14.20;99.90;;;;;;5073427;28;20072;-60
2021/01/17 05:13:45;;;;;;;3.50;2.00;;;14.20;99.90;;;;;;5073300;28;20055;-65
2021/01/17 05:16:13;;;;;;;4.63;1.88;;;14.20;99.90;;;;;;5073262;28;20029;-63
2021/01/17 05:18:46;;;;;;;4.75;1.85;;;14.20;99.90;;;;;;5072929;28;20027;-62
2021/01/17 05:21:19;;;;;;;3.85;1.73;;;14.20;99.90;;;;;;5073331;28;20384;-61
2021/01/17 05:23:47;;;;;;;3.95;1.90;;;14.20;99.90;;;;;;5072829;28;20476;-62
2021/01/17 05:26:13;;;;;;;4.55;1.90;;;14.20;99.90;;;;;;5072967;28;20040;-62
2021/01/17 05:28:39;;;;;;;4.47;2.20;;;14.20;99.90;;;;;;5072742;28;20389;-63
2021/01/17 05:31:05;;;;;;;4.70;1.80;;;14.20;99.90;;;;;;5072461;28;20044;-67
2021/01/17 05:33:32;;;;;;;4.07;1.73;;;14.20;99.90;;;;;;5073128;28;20495;-64
2021/01/17 05:35:59;;;;;;;4.28;1.95;;;14.20;99.90;;;;;;5073258;28;20028;-61
2021/01/17 05:38:26;;;;;;;3.42;1.67;;;14.20;99.90;;;;;;5083731;28;20072;-63
2021/01/17 05:40:51;;;;;;;4.60;1.65;;;14.20;99.90;;;;;;5073702;28;20387;-62
2021/01/17 05:43:17;;;;;;;5.22;1.77;;;14.20;99.90;;;;;;5072902;28;20021;-67
2021/01/17 05:45:43;;;;;;;2.75;1.40;;;14.20;99.90;;;;;;5072507;28;20100;-60
2021/01/17 05:48:10;;;;;;;3.35;1.55;;;14.20;99.90;;;;;;5072699;28;20078;-61
2021/01/17 05:50:37;;;;;;;3.47;1.58;;;14.20;99.90;;;;;;5072418;28;20032;-61
2021/01/17 05:53:05;;;;;;;2.60;1.50;;;14.20;99.90;;;;;;5072518;28;20111;-60
2021/01/17 05:55:39;;;;;;;4.13;1.63;;;14.20;99.90;;;;;;5072686;28;20052;-59
2021/01/17 05:58:30;;;;;;;5.35;2.00;;;14.20;99.90;;;;;;5072435;28;20025;-60
2021/01/17 06:00:58;;;;;;;7.13;1.80;;;14.20;99.90;;;;;;5071651;28;20384;-61
2021/01/17 06:03:31;;;;;;;3.22;1.40;;;14.20;99.90;;;;;;5070730;28;20464;-61
2021/01/17 06:06:03;;;;;;;4.75;1.67;;;14.20;99.90;;;;;;5071683;28;20029;-60
2021/01/17 06:08:30;;;;;;;2.88;1.60;;;14.20;99.90;;;;;;5072550;28;20061;-60
2021/01/17 06:11:07;;;;;;;3.00;1.75;;;14.20;99.90;;;;;;5071788;28;20054;-62
2021/01/17 06:13:36;;;;;;;4.75;1.80;;;14.20;99.90;;;;;;5071854;28;20031;-61
2021/01/17 06:16:02;;;;;;;3.70;1.58;;;14.20;99.90;;;;;;5072011;28;20032;-61
2021/01/17 06:18:30;;;;;;;5.20;2.00;;;14.20;99.90;;;;;;5072121;28;20423;-62
2021/01/17 06:20:59;;;;;;;4.32;1.77;;;14.20;99.90;;;;;;5071473;28;20024;-62
2021/01/17 06:23:25;;;;;;;4.57;1.80;;;14.20;99.90;;;;;;5071520;28;20107;-61
2021/01/17 06:26:10;;;;;;;4.95;1.60;;;14.20;99.90;;;;;;5071611;28;20104;-60
2021/01/17 06:28:40;;;;;;;4.72;1.75;;;14.20;99.90;;;;;;5071751;28;20044;-60
2021/01/17 06:31:07;;;;;;;4.82;1.92;;;14.20;99.90;;;;;;5071538;28;20090;-62
2021/01/17 06:33:34;;;;;;;3.35;1.52;;;14.20;99.90;;;;;;5071556;28;20020;-61
2021/01/17 06:36:15;;;;;;;4.68;1.95;;;14.20;99.90;;;;;;5072057;28;20020;-61
2021/01/17 06:38:42;;;;;;;4.50;1.50;;;14.20;99.90;;;;;;5080553;28;20029;-62
2021/01/17 06:41:08;;;;;;;4.47;1.95;;;14.20;99.90;;;;;;5071621;28;20461;-61
2021/01/17 06:43:42;;;;;;;5.10;1.77;;;14.20;99.90;;;;;;5071122;28;20040;-61
2021/01/17 06:46:08;;;;;;;3.90;1.88;;;14.20;99.90;;;;;;5071693;28;20032;-64
2021/01/17 06:48:34;;;;;;;4.65;1.90;;;14.20;99.90;;;;;;5071369;28;20021;-63
2021/01/17 06:51:17;;;;;;;4.13;1.67;;;14.20;99.90;;;;;;5071792;28;20036;-63
2021/01/17 06:53:52;;;;;;;4.80;1.60;;;14.20;99.90;;;;;;5071242;28;20049;-59
2021/01/17 06:56:19;;;;;;;4.28;1.65;;;14.20;99.90;;;;;;5071547;28;20016;-62
2021/01/17 06:58:46;;;;;;;5.25;1.77;;;14.10;99.90;;;;;;5071092;28;20432;-62
2021/01/17 07:01:14;;;;;;;4.55;1.48;;;14.20;99.90;;;;;;5071076;28;20079;-62
2021/01/17 07:04:14;;;;;;;3.88;1.67;;;14.20;99.90;;;;;;5070953;28;20052;-64
2021/01/17 07:07:15;;;;;;;4.03;1.40;;;14.20;99.90;;;;;;5071212;28;20077;-62
2021/01/17 07:09:48;;;;;;;3.83;1.80;;;14.20;99.90;;;;;;5070857;28;20056;-62
2021/01/17 07:12:53;;;;;;;3.13;1.48;;;14.20;99.90;;;;;;5071189;28;20550;-63
2021/01/17 07:15:26;;;;;;;;;;;14.20;99.90;;;;;;5071990;28;20055;-63
2021/01/17 07:18:14;;;;;;;4.45;1.40;;;14.20;99.90;;;;;;5071071;28;19913;-62
2021/01/17 07:20:43;;;;;;;3.97;1.40;;;14.20;99.90;;;;;;5071183;28;20021;-67
2021/01/17 07:23:11;;;;;;;6.60;1.38;;;14.20;99.90;;;;;;5071420;28;20023;-64
2021/01/17 07:25:38;;;;;;;4.93;1.73;;;14.20;99.90;;;;;;5070361;28;20052;-63
2021/01/17 07:28:19;;;;;;;3.83;1.48;;;14.20;99.90;;;;;;5070086;28;20020;-61
2021/01/17 07:30:46;;;;;;;3.58;1.50;;;14.20;99.90;;;;;;5071445;28;20028;-63
2021/01/17 07:33:14;;;;;;;3.05;1.60;;;14.20;99.90;;;;;;5072444;28;20035;-63
2021/01/17 07:35:47;;;;;;;4.05;1.63;;;14.20;99.90;;;;;;5074993;28;20021;-63
2021/01/17 07:38:21;;;;;;;4.33;1.53;;;14.20;99.90;;;;;;5075239;28;20017;-63
2021/01/17 07:40:52;;;;;;;;;;;14.20;99.90;;;;;;5075504;28;20255;-62
2021/01/17 07:43:24;;;;;;;4.38;1.50;;;14.20;99.90;;;;;;5075023;28;19911;-64
2021/01/17 07:45:52;;;;;;;4.43;1.60;;;14.20;99.90;;;;;;5074964;28;20388;-66
2021/01/17 07:48:19;;;;;;;3.47;1.40;;;14.20;99.90;;;;;;5075074;28;20024;-66
2021/01/17 07:50:47;;;;;;;4.03;1.50;;;14.20;99.90;;;;;;5074495;28;20037;-62
2021/01/17 07:53:36;;;;;;;8.60;1.70;;;14.30;99.90;;;;;;5074897;28;20457;-65
2021/01/17 07:56:28;;;;;;;4.97;1.35;;;14.30;99.90;;;;;;5074356;28;20488;-62
2021/01/17 07:59:01;;;;;;;5.68;1.70;;;14.40;99.90;;;;;;5073994;28;20029;-64
2021/01/17 08:01:33;;;;;;;7.80;1.20;;;14.40;99.90;;;;;;5074842;28;20488;-63
2021/01/17 08:04:02;;;;;;;4.25;1.45;;;14.40;99.90;;;;;;5074927;28;20056;-65
2021/01/17 08:06:36;;;;;;;5.75;1.58;;;14.40;99.90;;;;;;5074807;28;20028;-64
2021/01/17 08:09:13;;;;;;;7.30;1.90;;;14.40;99.90;;;;;;5074650;28;20056;-63
2021/01/17 08:11:40;;;;;;;3.75;1.40;;;14.40;99.90;;;;;;5074060;28;20060;-63
2021/01/17 08:14:22;;;;;;;7.00;1.48;;;14.50;99.90;;;;;;5074523;28;20096;-60
2021/01/17 08:17:19;;;;;;;4.63;1.67;;;14.50;99.90;;;;;;5074300;28;20036;-70
2021/01/17 08:19:53;;;;;;;6.55;1.70;;;14.50;99.90;;;;;;5074203;28;20021;-63
2021/01/17 08:22:22;;;;;;;4.55;1.40;;;14.50;99.90;;;;;;5074746;28;20020;-68
2021/01/17 08:25:01;;;;;;;8.75;1.55;;;14.50;99.90;;;;;;5074188;28;20025;-63
2021/01/17 08:27:35;;;;;;;3.22;1.30;;;14.50;99.90;;;;;;5073787;28;20029;-63
2021/01/17 08:30:06;;;;;;;6.47;1.95;;;14.50;99.90;;;;;;5070812;28;20039;-61
2021/01/17 08:32:37;;;;;;;3.03;1.23;;;14.50;99.90;;;;;;5073244;28;20389;-61
2021/01/17 08:35:18;;;;;;;5.22;1.95;;;14.50;99.90;;;;;;5070717;28;20423;-62
2021/01/17 08:38:14;;;;;;;5.78;1.83;;;14.50;99.90;;;;;;5070559;28;20024;-62
2021/01/17 08:40:53;;;;;;;7.63;1.85;;;14.50;99.90;;;;;;5065635;28;20617;-65
2021/01/17 08:43:31;;;;;;;7.85;2.05;;;14.50;99.90;;;;;;5070314;28;20095;-63
2021/01/17 08:45:56;;;;;;;8.15;1.67;;;14.50;99.90;;;;;;5073537;28;20427;-64
2021/01/17 08:48:24;;;;;;;9.45;2.00;;;14.60;99.90;;;;;;5082508;28;20032;-62
2021/01/17 08:50:53;;;;;;;10.45;2.40;;;14.60;99.90;;;;;;5088851;28;20033;-64
2021/01/17 08:53:26;;;;;;;9.98;2.67;;;14.60;99.90;;;;;;5073715;28;20536;-65
2021/01/17 08:55:53;;;;;;;9.70;2.22;;;14.60;99.90;;;;;;5073597;28;20159;-65
2021/01/17 08:58:28;;;;;;;8.70;2.13;;;14.60;99.90;;;;;;5073580;28;20104;-64
2021/01/17 09:00:56;;;;;;;10.30;2.13;;;14.60;99.90;;;;;;5073272;28;20066;-64
2021/01/17 09:03:28;;;;;;;7.32;1.95;;;14.60;99.90;;;;;;5073549;28;20115;-69
2021/01/17 09:05:55;;;;;;;7.78;1.95;;;14.60;99.90;;;;;;5073343;28;20043;-70
2021/01/17 09:08:22;;;;;;;9.52;2.22;;;14.70;99.90;;;;;;5073526;28;20017;-68
2021/01/17 09:10:48;;;;;;;8.52;1.90;;;14.80;99.90;;;;;;5072962;28;20111;-64
2021/01/17 09:13:21;;;;;;;7.13;1.90;;;14.80;99.90;;;;;;5073452;28;20021;-65
2021/01/17 09:15:58;;;;;;;13.03;2.30;;;14.80;99.90;;;;;;5073180;28;20020;-61
2021/01/17 09:18:37;;;;;;;8.35;2.33;;;14.90;99.90;;;;;;5073343;28;20277;-61
2021/01/17 09:21:05;;;;;;;8.93;2.20;;;14.90;99.90;;;;;;5073187;28;20496;-61
2021/01/17 09:23:39;;;;;;;7.85;2.05;;;14.90;99.90;;;;;;5073488;28;20060;-62
2021/01/17 09:26:05;;;;;;;;;;;14.90;99.90;;;;;;5073693;28;20028;-62
2021/01/17 09:28:31;;;;;;;10.82;2.15;;;15.00;99.90;;;;;;5073432;28;19904;-62
2021/01/17 09:30:59;;;;;;;9.43;2.30;;;15.00;99.90;;;;;;5073204;28;20040;-62
2021/01/17 09:33:27;;;;;;;9.02;2.40;;;15.10;99.90;;;;;;5072895;28;20380;-62
2021/01/17 09:35:53;;;;;;;8.07;2.15;;;15.10;99.90;;;;;;5072931;28;20087;-63
2021/01/17 09:38:21;;;;;;;9.65;2.30;;;15.10;99.90;;;;;;5071612;28;20025;-61
2021/01/17 09:40:53;;;;;;;6.38;1.92;;;15.20;99.90;;;;;;5071806;28;20830;-63
2021/01/17 09:43:19;;;;;;;7.30;2.00;;;15.20;99.90;;;;;;5072042;28;20024;-61
2021/01/17 09:45:52;;;;;;;8.25;2.17;;;15.20;99.90;;;;;;5069910;28;20376;-61
2021/01/17 09:48:19;;;;;;;9.27;2.20;;;15.20;99.90;;;;;;5068975;28;20036;-63
2021/01/17 09:50:45;;;;;;;8.10;2.35;;;15.30;99.90;;;;;;5058676;28;20032;-65
2021/01/17 09:53:11;;;;;;;8.73;2.17;;;15.30;99.90;;;;;;5058874;28;20204;-67
2021/01/17 09:55:44;;;;;;;7.15;2.00;;;15.30;99.90;;;;;;5055801;28;20104;-61
2021/01/17 09:58:12;;;;;;;9.80;2.65;;;15.30;99.90;;;;;;5066944;28;20020;-62
2021/01/17 10:00:39;;;;;;;8.00;2.40;;;15.30;99.90;;;;;;5071425;28;20032;-65
2021/01/17 10:03:09;;;;;;;7.63;2.35;;;15.40;99.90;;;;;;5071884;28;20024;-62
2021/01/17 10:05:36;;;;;;;6.65;2.05;;;15.40;99.90;;;;;;5071773;28;20107;-61
2021/01/17 10:08:07;;;;;;;5.70;1.85;;;15.40;99.90;;;;;;5065588;28;20097;-61
2021/01/17 10:10:34;;;;;;;7.07;2.40;;;15.40;99.90;;;;;;5071673;28;20056;-64
2021/01/17 10:13:00;;;;;;;9.20;2.33;;;15.50;99.90;;;;;;5065755;28;20055;-59
2021/01/17 10:15:26;;;;;;;6.32;2.00;;;15.50;99.90;;;;;;5061397;28;20845;-65
2021/01/17 10:17:55;;;;;;;5.70;2.10;;;15.50;99.90;;;;;;5083497;28;20036;-63
2021/01/17 10:20:27;;;;;;;5.85;1.85;;;15.50;99.90;;;;;;5081428;28;20370;-64
2021/01/17 10:23:16;;;;;;;6.45;2.17;;;15.60;99.90;;;;;;5071774;28;20016;-67
2021/01/17 10:25:45;;;;;;;6.00;1.90;;;15.60;99.90;;;;;;5051959;28;20040;-65
2021/01/17 10:28:11;;;;;;;8.60;2.30;;;15.60;99.90;;;;;;5051693;28;20025;-65
2021/01/17 10:30:41;;;;;;;7.97;2.42;;;15.60;99.90;;;;;;5069546;28;20051;-65
2021/01/17 10:33:12;;;;;;;5.10;1.92;;;15.70;99.90;;;;;;5071710;28;20426;-71
2021/01/17 10:35:46;;;;;;;5.32;2.05;;;15.70;99.90;;;;;;5071773;28;20112;-71
2021/01/17 10:38:12;;;;;;;5.95;2.25;;;15.70;99.90;;;;;;5071947;28;20032;-68
2021/01/17 10:40:39;;;;;;;7.30;1.98;;;15.70;99.90;;;;;;5071372;28;20032;-72
2021/01/17 10:43:13;;;;;;;7.15;1.90;;;15.80;99.90;;;;;;5071832;28;20107;-71
2021/01/17 10:45:44;;;;;;;7.47;2.05;;;15.80;99.90;;;;;;5071101;28;20024;-61
2021/01/17 10:48:16;;;;;;;8.90;2.55;;;15.80;99.90;;;;;;5071242;28;20035;-61
2021/01/17 10:50:56;;;;;;;5.45;1.85;;;15.80;99.90;;;;;;5071102;28;20090;-61
2021/01/17 10:53:32;;;;;;;5.55;2.08;;;15.80;99.90;;;;;;5070875;28;20786;-61
2021/01/17 10:55:59;;;;;;;7.00;1.95;;;15.90;99.90;;;;;;5071750;28;20028;-61
2021/01/17 10:58:33;;;;;;;5.63;2.17;;;15.90;99.90;;;;;;5071177;28;20032;-62
2021/01/17 11:01:00;;;;;;;6.88;1.88;;;15.90;99.90;;;;;;5071686;28;20062;-63
2021/01/17 11:03:35;;;;;;;7.78;2.00;;;16.00;99.90;;;;;;5070472;28;20035;-61
2021/01/17 11:06:15;;;;;;;5.03;1.90;;;16.00;99.90;;;;;;5052408;28;20036;-59
2021/01/17 11:08:53;;;;;;;7.07;2.15;;;16.00;99.90;;;;;;5059778;28;20052;-59
2021/01/17 11:11:20;;;;;;;6.50;2.08;;;16.00;99.90;;;;;;5071419;28;20040;-64
2021/01/17 11:14:03;;;;;;;7.43;1.88;;;16.00;99.90;;;;;;5069105;28;20029;-61
2021/01/17 11:16:42;;;;;;;6.50;2.30;;;16.00;99.90;;;;;;5071660;28;20025;-60
2021/01/17 11:19:13;;;;;;;7.13;2.17;;;16.00;99.90;;;;;;5069805;28;20021;-61
2021/01/17 11:21:40;;;;;;;5.50;2.17;;;16.00;99.90;;;;;;5071095;28;20025;-62
2021/01/17 11:24:07;;;;;;;6.65;2.10;;;16.10;99.90;;;;;;5087908;28;20031;-60
2021/01/17 11:26:32;;;;;;;6.93;1.90;;;16.10;99.90;;;;;;5089886;28;20046;-62
2021/01/17 11:29:00;;;;;;;6.72;1.90;;;16.10;99.90;;;;;;5061945;28;20556;-61
2021/01/17 11:31:27;;;;;;;6.97;2.47;;;16.10;99.90;;;;;;5051073;28;20033;-61
2021/01/17 11:33:53;;;;;;;6.68;2.30;;;16.10;99.90;;;;;;5056552;28;20028;-61
2021/01/17 11:36:25;;;;;;;9.00;2.80;;;16.10;99.90;;;;;;5071035;28;20078;-60
2021/01/17 11:38:53;;;;;;;8.75;2.60;;;16.20;99.90;;;;;;5062034;28;20016;-61
2021/01/17 11:41:20;;;;;;;7.88;2.55;;;16.20;99.90;;;;;;5077836;28;20024;-62
2021/01/17 11:43:47;;;;;;;6.82;2.63;;;16.20;99.90;;;;;;5050832;28;20021;-60
2021/01/17 11:46:14;;;;;;;6.78;2.25;;;16.20;99.90;;;;;;5051173;28;20033;-67
2021/01/17 11:48:41;;;;;;;7.03;1.90;;;16.20;99.90;;;;;;5067410;28;20024;-60
2021/01/17 11:51:08;;;;;;;7.70;2.40;;;16.20;99.90;;;;;;5083577;28;20052;-61
2021/01/17 11:53:35;;;;;;;7.07;2.08;;;16.20;99.90;;;;;;5087244;28;20029;-60
2021/01/17 11:56:01;;;;;;;10.95;2.90;;;16.20;99.90;;;;;;5091319;28;20055;-64
2021/01/17 11:58:28;;;;;;;8.02;2.38;;;16.20;99.90;;;;;;5074105;28;20025;-62
2021/01/17 12:00:58;;;;;;;8.63;2.13;;;16.30;99.90;;;;;;5065082;28;20061;-64
2021/01/17 12:03:40;;;;;;;7.82;2.70;;;16.30;99.90;;;;;;5064848;28;20056;-63
2021/01/17 12:06:12;;;;;;;8.48;2.65;;;16.40;99.90;;;;;;5057529;28;20125;-63
2021/01/17 12:08:56;;;;;;;6.35;2.40;;;16.40;99.90;;;;;;5050979;28;20021;-63
2021/01/17 12:11:31;;;;;;;6.82;2.72;;;16.40;99.90;;;;;;5067972;28;20157;-62
2021/01/17 12:13:57;;;;;;;9.05;2.83;;;16.50;99.90;;;;;;5058380;28;20037;-62
2021/01/17 12:16:37;;;;;;;7.30;2.70;;;16.50;99.90;;;;;;5065039;28;20107;-62
2021/01/17 12:19:05;;;;;;;9.30;3.03;;;16.60;99.90;;;;;;5067891;28;20119;-63
2021/01/17 12:21:32;;;;;;;7.75;3.03;;;16.60;99.90;;;;;;5063507;28;20028;-64
2021/01/17 12:23:59;;;;;;;9.30;2.83;;;16.60;99.90;;;;;;5067764;28;20530;-66
2021/01/17 12:26:26;;;;;;;8.77;2.63;;;16.70;99.90;;;;;;5072123;28;20115;-73
2021/01/17 12:28:52;;;;;;;10.00;2.97;;;16.70;99.90;;;;;;5071253;28;20415;-68
2021/01/17 12:31:20;;;;;;;11.07;3.50;;;16.80;99.90;;;;;;5086930;28;20089;-66
2021/01/17 12:33:46;;;;;;;6.05;3.08;;;16.80;99.90;;;;;;5073436;28;20035;-68
2021/01/17 12:36:14;;;;;;;7.82;3.10;;;16.90;99.90;;;;;;5073566;28;20107;-70
2021/01/17 12:38:41;;;;;;;6.55;2.97;;;17.00;99.90;;;;;;5073319;28;20100;-74
2021/01/17 12:41:15;;;;;;;8.10;3.25;;;17.00;99.90;;;;;;5072719;28;20037;-66
2021/01/17 12:43:42;;;;;;;7.20;2.70;;;17.10;99.90;;;;;;5069545;28;20082;-75
2021/01/17 12:46:08;;;;;;;7.53;2.75;;;17.10;99.90;;;;;;5073518;28;20031;-79
2021/01/17 12:48:35;;;;;;;5.35;2.45;;;17.20;99.90;;;;;;5065279;28;20082;-78
2021/01/17 12:51:01;;;;;;;5.97;2.70;;;17.30;99.90;;;;;;5081975;28;20052;-77
2021/01/17 12:53:27;;;;;;;5.65;2.65;;;17.40;99.90;;;;;;5087633;28;20099;-78
2021/01/17 12:55:52;;;;;;;6.60;2.70;;;17.50;99.90;;;;;;5078939;28;20109;-78
2021/01/17 12:58:18;;;;;;;7.40;2.25;;;17.50;99.90;;;;;;5076713;28;20028;-66
2021/01/17 13:00:44;;;;;;;5.68;2.38;;;17.60;99.90;;;;;;5077080;28;20025;-67
2021/01/17 13:03:09;;;;;;;6.93;2.67;;;17.70;99.90;;;;;;5077172;28;20089;-75